sensor_id;sensor_type;location;lat;lon;timestamp;P1;durP1;ratioP1;P2;durP2;ratioP2
46597;SDS011;32318;48.858;8.252;2022-10-16T00:03:54;3.30;;;1.17;;
46597;SDS011;32318;48.858;8.252;2022-10-16T00:11:56;3.42;;;1.20;;
46597;SDS011;32318;48.858;8.252;2022-10-16T00:19:56;8.38;;;1.33;;
46597;SDS011;32318;48.858;8.252;2022-10-16T00:27:56;2.47;;;1.10;;
46597;SDS011;32318;48.858;8.252;2022-10-16T00:35:57;2.75;;;1.23;;
46597;SDS011;32318;48.858;8.252;2022-10-16T00:43:59;3.78;;;1.38;;
46597;SDS011;32318;48.858;8.252;2022-10-16T00:52:01;8.77;;;1.55;;
46597;SDS011;32318;48.858;8.252;2022-10-16T01:00:03;4.22;;;1.60;;
46597;SDS011;32318;48.858;8.252;2022-10-16T01:16:42;9.02;;;1.55;;
46597;SDS011;32318;48.858;8.252;2022-10-16T01:24:49;2.83;;;1.20;;
46597;SDS011;32318;48.858;8.252;2022-10-16T01:32:55;2.42;;;1.40;;
46597;SDS011;32318;48.858;8.252;2022-10-16T01:41:01;6.97;;;1.40;;
46597;SDS011;32318;48.858;8.252;2022-10-16T01:49:08;4.35;;;1.60;;
46597;SDS011;32318;48.858;8.252;2022-10-16T01:57:10;4.43;;;1.17;;
46597;SDS011;32318;48.858;8.252;2022-10-16T02:13:23;1.98;;;1.15;;
46597;SDS011;32318;48.858;8.252;2022-10-16T02:21:30;5.38;;;1.10;;
46597;SDS011;32318;48.858;8.252;2022-10-16T02:29:40;4.75;;;1.23;;
46597;SDS011;32318;48.858;8.252;2022-10-16T02:45:46;4.40;;;1.20;;
46597;SDS011;32318;48.858;8.252;2022-10-16T02:53:46;6.50;;;1.10;;
46597;SDS011;32318;48.858;8.252;2022-10-16T03:01:46;4.72;;;0.98;;
46597;SDS011;32318;48.858;8.252;2022-10-16T03:09:46;2.17;;;1.08;;
46597;SDS011;32318;48.858;8.252;2022-10-16T03:17:47;11.83;;;1.20;;
46597;SDS011;32318;48.858;8.252;2022-10-16T03:25:47;7.70;;;1.20;;
46597;SDS011;32318;48.858;8.252;2022-10-16T03:33:48;3.55;;;1.38;;
46597;SDS011;32318;48.858;8.252;2022-10-16T03:41:48;1.17;;;0.80;;
46597;SDS011;32318;48.858;8.252;2022-10-16T03:49:49;5.00;;;1.42;;
46597;SDS011;32318;48.858;8.252;2022-10-16T03:57:49;2.42;;;1.23;;
46597;SDS011;32318;48.858;8.252;2022-10-16T04:05:50;7.63;;;1.13;;
46597;SDS011;32318;48.858;8.252;2022-10-16T04:13:50;1.63;;;0.95;;
46597;SDS011;32318;48.858;8.252;2022-10-16T04:21:50;2.40;;;0.90;;
46597;SDS011;32318;48.858;8.252;2022-10-16T04:29:51;3.35;;;1.25;;
46597;SDS011;32318;48.858;8.252;2022-10-16T04:37:51;9.07;;;1.20;;
46597;SDS011;32318;48.858;8.252;2022-10-16T04:45:51;2.95;;;0.82;;
46597;SDS011;32318;48.858;8.252;2022-10-16T04:53:52;7.88;;;1.20;;
46597;SDS011;32318;48.858;8.252;2022-10-16T05:01:52;2.03;;;1.00;;
46597;SDS011;32318;48.858;8.252;2022-10-16T05:09:52;2.88;;;1.20;;
46597;SDS011;32318;48.858;8.252;2022-10-16T05:17:53;4.60;;;1.13;;
46597;SDS011;32318;48.858;8.252;2022-10-16T05:25:54;11.40;;;1.30;;
46597;SDS011;32318;48.858;8.252;2022-10-16T05:33:58;6.38;;;1.30;;
46597;SDS011;32318;48.858;8.252;2022-10-16T05:41:59;3.03;;;1.25;;
46597;SDS011;32318;48.858;8.252;2022-10-16T05:50:00;8.10;;;1.35;;
46597;SDS011;32318;48.858;8.252;2022-10-16T05:58:00;8.82;;;1.80;;
46597;SDS011;32318;48.858;8.252;2022-10-16T06:06:07;10.63;;;1.45;;
46597;SDS011;32318;48.858;8.252;2022-10-16T06:14:09;6.57;;;1.50;;
46597;SDS011;32318;48.858;8.252;2022-10-16T06:22:09;6.80;;;2.28;;
46597;SDS011;32318;48.858;8.252;2022-10-16T06:30:10;3.00;;;1.38;;
46597;SDS011;32318;48.858;8.252;2022-10-16T06:38:10;10.87;;;2.20;;
46597;SDS011;32318;48.858;8.252;2022-10-16T06:46:11;4.90;;;1.20;;
46597;SDS011;32318;48.858;8.252;2022-10-16T06:54:14;8.32;;;1.70;;
46597;SDS011;32318;48.858;8.252;2022-10-16T07:02:15;8.02;;;1.40;;
46597;SDS011;32318;48.858;8.252;2022-10-16T07:10:15;6.05;;;1.50;;
46597;SDS011;32318;48.858;8.252;2022-10-16T07:18:15;2.88;;;1.17;;
46597;SDS011;32318;48.858;8.252;2022-10-16T07:26:16;4.80;;;1.33;;
46597;SDS011;32318;48.858;8.252;2022-10-16T07:34:17;6.65;;;1.42;;
46597;SDS011;32318;48.858;8.252;2022-10-16T07:42:18;7.15;;;2.13;;
46597;SDS011;32318;48.858;8.252;2022-10-16T07:50:20;3.65;;;1.10;;
46597;SDS011;32318;48.858;8.252;2022-10-16T07:58:20;5.22;;;1.25;;
46597;SDS011;32318;48.858;8.252;2022-10-16T08:06:21;8.23;;;1.20;;
46597;SDS011;32318;48.858;8.252;2022-10-16T08:14:22;13.13;;;1.70;;
46597;SDS011;32318;48.858;8.252;2022-10-16T08:22:22;4.90;;;1.40;;
46597;SDS011;32318;48.858;8.252;2022-10-16T08:30:23;10.70;;;1.73;;
46597;SDS011;32318;48.858;8.252;2022-10-16T08:38:24;6.75;;;2.10;;
46597;SDS011;32318;48.858;8.252;2022-10-16T08:46:31;10.80;;;2.10;;
46597;SDS011;32318;48.858;8.252;2022-10-16T08:54:42;8.63;;;2.10;;
46597;SDS011;32318;48.858;8.252;2022-10-16T09:27:44;4.05;;;1.90;;
46597;SDS011;32318;48.858;8.252;2022-10-16T09:35:50;9.80;;;2.40;;
46597;SDS011;32318;48.858;8.252;2022-10-16T09:44:01;15.75;;;1.83;;
46597;SDS011;32318;48.858;8.252;2022-10-16T09:52:13;13.45;;;1.50;;
46597;SDS011;32318;48.858;8.252;2022-10-16T10:00:15;6.68;;;1.70;;
46597;SDS011;32318;48.858;8.252;2022-10-16T10:08:16;6.22;;;1.90;;
46597;SDS011;32318;48.858;8.252;2022-10-16T10:16:24;13.32;;;1.63;;
46597;SDS011;32318;48.858;8.252;2022-10-16T10:24:24;9.15;;;1.65;;
46597;SDS011;32318;48.858;8.252;2022-10-16T11:14:29;9.10;;;2.30;;
46597;SDS011;32318;48.858;8.252;2022-10-16T11:22:36;10.77;;;1.75;;
46597;SDS011;32318;48.858;8.252;2022-10-16T11:38:58;9.15;;;1.25;;
46597;SDS011;32318;48.858;8.252;2022-10-16T12:03:56;15.25;;;1.77;;
46597;SDS011;32318;48.858;8.252;2022-10-16T12:12:23;4.22;;;1.80;;
46597;SDS011;32318;48.858;8.252;2022-10-16T12:20:27;8.82;;;1.73;;
46597;SDS011;32318;48.858;8.252;2022-10-16T12:28:32;11.85;;;1.65;;
46597;SDS011;32318;48.858;8.252;2022-10-16T12:36:33;10.50;;;1.50;;
46597;SDS011;32318;48.858;8.252;2022-10-16T12:44:35;3.28;;;1.33;;
46597;SDS011;32318;48.858;8.252;2022-10-16T12:52:37;12.80;;;1.88;;
46597;SDS011;32318;48.858;8.252;2022-10-16T13:00:41;4.07;;;1.33;;
46597;SDS011;32318;48.858;8.252;2022-10-16T13:09:49;6.60;;;1.58;;
46597;SDS011;32318;48.858;8.252;2022-10-16T13:33:49;10.15;;;1.80;;
46597;SDS011;32318;48.858;8.252;2022-10-16T13:42:09;12.00;;;1.30;;
46597;SDS011;32318;48.858;8.252;2022-10-16T13:50:16;20.13;;;1.75;;
46597;SDS011;32318;48.858;8.252;2022-10-16T13:58:17;7.30;;;1.80;;
46597;SDS011;32318;48.858;8.252;2022-10-16T14:06:19;6.22;;;1.25;;
46597;SDS011;32318;48.858;8.252;2022-10-16T14:14:24;12.50;;;1.70;;
46597;SDS011;32318;48.858;8.252;2022-10-16T14:22:28;6.07;;;1.83;;
46597;SDS011;32318;48.858;8.252;2022-10-16T14:30:30;5.43;;;1.77;;
46597;SDS011;32318;48.858;8.252;2022-10-16T14:38:32;8.57;;;1.95;;
46597;SDS011;32318;48.858;8.252;2022-10-16T14:46:36;5.07;;;1.90;;
46597;SDS011;32318;48.858;8.252;2022-10-16T14:54:39;8.05;;;1.98;;
46597;SDS011;32318;48.858;8.252;2022-10-16T15:02:40;10.88;;;1.73;;
46597;SDS011;32318;48.858;8.252;2022-10-16T15:10:43;5.93;;;1.52;;
46597;SDS011;32318;48.858;8.252;2022-10-16T15:18:44;4.57;;;1.80;;
46597;SDS011;32318;48.858;8.252;2022-10-16T15:26:44;9.50;;;1.77;;
46597;SDS011;32318;48.858;8.252;2022-10-16T15:34:54;6.43;;;1.95;;
46597;SDS011;32318;48.858;8.252;2022-10-16T15:42:55;8.00;;;1.75;;
46597;SDS011;32318;48.858;8.252;2022-10-16T15:50:55;14.27;;;2.30;;
46597;SDS011;32318;48.858;8.252;2022-10-16T16:07:56;10.95;;;1.95;;
46597;SDS011;32318;48.858;8.252;2022-10-16T16:15:57;8.82;;;2.08;;
46597;SDS011;32318;48.858;8.252;2022-10-16T16:23:58;9.07;;;1.88;;
46597;SDS011;32318;48.858;8.252;2022-10-16T16:31:58;6.05;;;2.00;;
46597;SDS011;32318;48.858;8.252;2022-10-16T16:39:59;11.15;;;2.42;;
46597;SDS011;32318;48.858;8.252;2022-10-16T16:47:59;9.52;;;2.40;;
46597;SDS011;32318;48.858;8.252;2022-10-16T16:56:03;7.13;;;2.83;;
46597;SDS011;32318;48.858;8.252;2022-10-16T17:04:05;6.23;;;2.80;;
46597;SDS011;32318;48.858;8.252;2022-10-16T17:12:05;6.32;;;2.28;;
46597;SDS011;32318;48.858;8.252;2022-10-16T17:20:05;6.20;;;2.10;;
46597;SDS011;32318;48.858;8.252;2022-10-16T17:28:09;5.38;;;2.50;;
46597;SDS011;32318;48.858;8.252;2022-10-16T17:36:11;10.23;;;3.53;;
46597;SDS011;32318;48.858;8.252;2022-10-16T17:44:13;11.82;;;4.25;;
46597;SDS011;32318;48.858;8.252;2022-10-16T17:52:18;16.90;;;4.15;;
46597;SDS011;32318;48.858;8.252;2022-10-16T18:00:19;18.30;;;3.50;;
46597;SDS011;32318;48.858;8.252;2022-10-16T18:08:19;12.18;;;3.95;;
46597;SDS011;32318;48.858;8.252;2022-10-16T18:16:20;23.50;;;4.20;;
46597;SDS011;32318;48.858;8.252;2022-10-16T18:24:20;20.60;;;3.97;;
46597;SDS011;32318;48.858;8.252;2022-10-16T18:32:26;8.40;;;3.60;;
46597;SDS011;32318;48.858;8.252;2022-10-16T18:40:27;8.13;;;3.90;;
46597;SDS011;32318;48.858;8.252;2022-10-16T18:48:28;9.25;;;3.72;;
46597;SDS011;32318;48.858;8.252;2022-10-16T18:56:30;23.67;;;3.97;;
46597;SDS011;32318;48.858;8.252;2022-10-16T19:04:31;7.53;;;3.85;;
46597;SDS011;32318;48.858;8.252;2022-10-16T19:12:31;10.60;;;3.28;;
46597;SDS011;32318;48.858;8.252;2022-10-16T19:20:31;11.50;;;3.15;;
46597;SDS011;32318;48.858;8.252;2022-10-16T19:28:32;14.50;;;3.47;;
46597;SDS011;32318;48.858;8.252;2022-10-16T19:36:33;12.57;;;4.10;;
46597;SDS011;32318;48.858;8.252;2022-10-16T19:44:35;10.18;;;3.97;;
46597;SDS011;32318;48.858;8.252;2022-10-16T19:52:35;11.55;;;4.55;;
46597;SDS011;32318;48.858;8.252;2022-10-16T20:00:39;22.73;;;3.92;;
46597;SDS011;32318;48.858;8.252;2022-10-16T20:08:41;9.55;;;3.50;;
46597;SDS011;32318;48.858;8.252;2022-10-16T20:16:43;12.90;;;3.60;;
46597;SDS011;32318;48.858;8.252;2022-10-16T20:24:44;18.45;;;4.28;;
46597;SDS011;32318;48.858;8.252;2022-10-16T20:32:44;7.50;;;4.53;;
46597;SDS011;32318;48.858;8.252;2022-10-16T20:40:45;27.75;;;4.30;;
46597;SDS011;32318;48.858;8.252;2022-10-16T20:48:47;14.32;;;4.60;;
46597;SDS011;32318;48.858;8.252;2022-10-16T20:56:48;12.68;;;4.38;;
46597;SDS011;32318;48.858;8.252;2022-10-16T21:04:48;14.70;;;5.07;;
46597;SDS011;32318;48.858;8.252;2022-10-16T21:12:52;13.85;;;4.03;;
46597;SDS011;32318;48.858;8.252;2022-10-16T21:20:56;19.65;;;4.28;;
46597;SDS011;32318;48.858;8.252;2022-10-16T21:28:57;11.27;;;3.97;;
46597;SDS011;32318;48.858;8.252;2022-10-16T21:45:03;13.20;;;3.65;;
46597;SDS011;32318;48.858;8.252;2022-10-16T21:53:09;11.77;;;4.28;;
46597;SDS011;32318;48.858;8.252;2022-10-16T22:01:11;11.18;;;4.35;;
46597;SDS011;32318;48.858;8.252;2022-10-16T22:09:31;11.65;;;3.50;;
46597;SDS011;32318;48.858;8.252;2022-10-16T22:17:32;6.35;;;3.42;;
46597;SDS011;32318;48.858;8.252;2022-10-16T22:25:44;11.65;;;4.32;;
46597;SDS011;32318;48.858;8.252;2022-10-16T22:33:58;12.82;;;3.03;;
46597;SDS011;32318;48.858;8.252;2022-10-16T22:42:00;20.70;;;2.88;;
46597;SDS011;32318;48.858;8.252;2022-10-16T22:50:02;11.07;;;2.80;;
46597;SDS011;32318;48.858;8.252;2022-10-16T22:58:03;8.55;;;2.85;;
46597;SDS011;32318;48.858;8.252;2022-10-16T23:06:03;13.43;;;2.58;;
46597;SDS011;32318;48.858;8.252;2022-10-16T23:14:04;6.68;;;2.47;;
46597;SDS011;32318;48.858;8.252;2022-10-16T23:22:05;16.70;;;2.57;;
46597;SDS011;32318;48.858;8.252;2022-10-16T23:30:05;8.68;;;2.58;;
46597;SDS011;32318;48.858;8.252;2022-10-16T23:38:08;10.82;;;2.67;;
46597;SDS011;32318;48.858;8.252;2022-10-16T23:46:09;11.32;;;2.58;;
46597;SDS011;32318;48.858;8.252;2022-10-16T23:54:10;12.45;;;2.45;;
